createdAt,value
2019-03-18T00:00:32.385Z,2.08
2019-03-18T00:02:59.924Z,3.02
2019-03-18T00:05:27.372Z,1.37
2019-03-18T00:07:54.913Z,3.33
2019-03-18T00:10:22.377Z,4.22
2019-03-18T00:12:52.027Z,1.95
2019-03-18T00:15:19.044Z,3.37
2019-03-18T00:17:46.502Z,2.80
2019-03-18T00:20:13.937Z,2.58
2019-03-18T00:22:41.464Z,1.45
2019-03-18T00:25:09.097Z,2.33
2019-03-18T00:27:36.525Z,3.25
2019-03-18T00:30:05.369Z,5.60
2019-03-18T00:32:32.805Z,1.67
2019-03-18T00:35:00.243Z,2.80
2019-03-18T00:37:27.660Z,3.62
2019-03-18T00:39:55.120Z,2.08
2019-03-18T00:42:22.545Z,3.90
2019-03-18T00:44:49.984Z,2.33
2019-03-18T00:47:17.530Z,1.75
2019-03-18T00:49:44.969Z,2.65
2019-03-18T00:52:12.424Z,2.92
2019-03-18T00:54:39.863Z,1.67
2019-03-18T00:57:07.288Z,2.45
2019-03-18T00:59:34.743Z,2.95
2019-03-18T01:02:02.476Z,3.30
2019-03-18T01:04:29.915Z,3.27
2019-03-18T01:06:57.373Z,3.65
2019-03-18T01:09:24.798Z,1.95
2019-03-18T01:11:52.272Z,3.52
2019-03-18T01:14:19.757Z,5.00
2019-03-18T01:16:47.189Z,4.60
2019-03-18T01:19:14.646Z,5.78
2019-03-18T01:21:42.061Z,5.08
2019-03-18T01:24:09.408Z,2.02
2019-03-18T01:26:36.851Z,2.22
2019-03-18T01:29:04.409Z,2.25
2019-03-18T01:31:31.741Z,3.65
2019-03-18T01:33:59.207Z,3.15
2019-03-18T01:36:26.655Z,3.62
2019-03-18T01:38:54.129Z,2.60
2019-03-18T01:41:21.581Z,3.92
2019-03-18T01:43:48.934Z,3.33
2019-03-18T01:46:16.376Z,2.25
2019-03-18T01:48:43.809Z,3.72
2019-03-18T01:51:11.281Z,2.27
2019-03-18T01:53:38.700Z,2.75
2019-03-18T01:56:06.145Z,4.05
2019-03-18T01:58:33.593Z,2.40
2019-03-18T02:01:01.027Z,3.40
2019-03-18T02:03:28.479Z,3.67
2019-03-18T02:05:55.952Z,4.60
2019-03-18T02:08:23.397Z,3.83
2019-03-18T02:10:50.843Z,5.20
2019-03-18T02:13:18.324Z,3.27
2019-03-18T02:15:53.144Z,4.55
2019-03-18T02:18:15.016Z,3.12
2019-03-18T02:20:42.462Z,3.10
2019-03-18T02:23:09.801Z,2.17
2019-03-18T02:25:37.260Z,6.03
2019-03-18T02:28:04.696Z,4.22
2019-03-18T02:30:32.141Z,3.37
2019-03-18T02:32:59.612Z,8.63
2019-03-18T02:35:27.167Z,4.65
2019-03-18T02:37:54.597Z,6.35
2019-03-18T02:40:22.061Z,4.15
2019-03-18T02:42:49.556Z,2.70
2019-03-18T02:45:16.981Z,7.05
2019-03-18T02:47:44.440Z,5.33
2019-03-18T02:50:11.919Z,5.83
2019-03-18T02:52:39.311Z,4.58
2019-03-18T02:55:07.081Z,4.78
2019-03-18T02:57:34.505Z,5.78
2019-03-18T03:00:01.933Z,4.53
2019-03-18T03:02:29.391Z,6.67
2019-03-18T03:04:56.832Z,7.95
2019-03-18T03:07:24.262Z,5.08
2019-03-18T03:09:51.829Z,5.70
2019-03-18T03:12:19.324Z,4.65
2019-03-18T03:14:46.764Z,5.45
2019-03-18T03:17:14.213Z,8.63
2019-03-18T03:19:41.548Z,8.83
2019-03-18T03:22:08.969Z,5.83
2019-03-18T03:24:36.403Z,5.10
2019-03-18T03:27:03.842Z,6.37
2019-03-18T03:29:31.264Z,4.05
2019-03-18T03:31:58.766Z,8.70
2019-03-18T03:34:26.210Z,6.80
2019-03-18T03:36:53.644Z,9.48
2019-03-18T03:39:21.090Z,4.92
2019-03-18T03:41:48.577Z,6.12
2019-03-18T03:44:16.029Z,7.80
2019-03-18T03:46:44.214Z,4.83
2019-03-18T03:49:11.744Z,8.23
2019-03-18T03:51:39.174Z,7.45
2019-03-18T03:54:06.632Z,8.55
2019-03-18T03:56:34.089Z,6.85
2019-03-18T03:59:01.533Z,4.75
2019-03-18T04:01:29.570Z,5.62
2019-03-18T04:03:57.498Z,6.40
2019-03-18T04:06:24.941Z,7.70
2019-03-18T04:08:52.390Z,7.95
2019-03-18T04:11:19.842Z,8.23
2019-03-18T04:13:47.380Z,5.37
2019-03-18T04:16:14.952Z,5.53
2019-03-18T04:18:42.387Z,10.00
2019-03-18T04:21:09.813Z,5.72
2019-03-18T04:23:37.277Z,7.60
2019-03-18T04:26:04.720Z,10.13
2019-03-18T04:28:32.145Z,12.07
2019-03-18T04:30:59.583Z,9.50
2019-03-18T04:33:27.035Z,8.33
2019-03-18T04:35:54.610Z,5.95
2019-03-18T04:38:22.053Z,6.85
2019-03-18T04:40:49.694Z,7.80
2019-03-18T04:43:17.159Z,6.92
2019-03-18T04:45:44.581Z,9.68
2019-03-18T04:48:12.035Z,14.28
2019-03-18T04:50:39.460Z,7.33
2019-03-18T04:53:06.909Z,8.10
2019-03-18T04:55:34.354Z,11.90
2019-03-18T04:58:01.800Z,7.50
2019-03-18T05:00:29.231Z,7.67
2019-03-18T05:02:56.691Z,10.95
2019-03-18T05:05:24.325Z,10.08
2019-03-18T05:07:51.759Z,9.80
2019-03-18T05:10:19.322Z,11.45
2019-03-18T05:12:46.750Z,13.20
2019-03-18T05:15:14.173Z,9.80
2019-03-18T05:17:41.641Z,9.08
2019-03-18T05:20:09.181Z,12.80
2019-03-18T05:22:36.617Z,12.30
2019-03-18T05:25:04.308Z,10.53
2019-03-18T05:27:31.745Z,11.10
2019-03-18T05:29:59.181Z,10.38
2019-03-18T05:32:26.666Z,11.45
2019-03-18T05:34:54.135Z,12.10
2019-03-18T05:37:21.578Z,11.63
2019-03-18T05:39:49.034Z,9.20
2019-03-18T05:42:16.485Z,12.98
2019-03-18T05:44:43.823Z,18.52
2019-03-18T05:47:11.247Z,12.37
2019-03-18T05:49:38.707Z,13.35
2019-03-18T05:52:06.135Z,12.53
2019-03-18T05:54:35.692Z,15.32
2019-03-18T05:57:03.225Z,10.63
2019-03-18T05:59:30.668Z,14.95
2019-03-18T06:01:58.109Z,11.33
2019-03-18T06:04:25.570Z,17.80
2019-03-18T06:06:53.032Z,12.55
2019-03-18T06:09:20.457Z,14.68
2019-03-18T06:11:47.821Z,13.65
2019-03-18T06:14:15.272Z,16.45
2019-03-18T06:16:42.709Z,14.75
2019-03-18T06:19:10.137Z,12.43
2019-03-18T06:21:37.592Z,14.53
2019-03-18T06:24:06.411Z,14.87
2019-03-18T06:26:34.143Z,14.40
2019-03-18T06:29:01.600Z,15.93
2019-03-18T06:31:29.100Z,13.45
2019-03-18T06:33:56.597Z,11.93
2019-03-18T06:36:24.054Z,19.17
2019-03-18T06:38:51.503Z,16.23
2019-03-18T06:41:19.087Z,15.55
2019-03-18T06:43:46.551Z,14.55
2019-03-18T06:46:14.005Z,18.70
2019-03-18T06:48:41.577Z,15.55
2019-03-18T06:51:09.068Z,17.23
2019-03-18T06:53:36.557Z,24.80
2019-03-18T06:56:04.041Z,14.83
2019-03-18T06:58:31.480Z,18.17
2019-03-18T07:00:59.030Z,17.62
2019-03-18T07:03:26.447Z,18.27
2019-03-18T07:05:53.963Z,14.93
2019-03-18T07:08:21.461Z,17.25
2019-03-18T07:10:48.922Z,21.23
2019-03-18T07:13:16.448Z,15.20
2019-03-18T07:15:43.908Z,12.35
2019-03-18T07:18:18.162Z,20.00
2019-03-18T07:20:40.609Z,14.78
2019-03-18T07:23:08.084Z,15.00
2019-03-18T07:25:35.534Z,15.72
2019-03-18T07:28:02.968Z,16.65
2019-03-18T07:30:30.814Z,17.48
2019-03-18T07:32:58.269Z,19.32
2019-03-18T07:35:25.903Z,15.48
2019-03-18T07:37:53.332Z,9.13
2019-03-18T07:40:20.763Z,15.03
2019-03-18T07:42:48.256Z,16.40
2019-03-18T07:45:16.326Z,15.38
2019-03-18T07:47:43.992Z,14.30
2019-03-18T07:50:11.476Z,13.85
2019-03-18T07:52:38.901Z,13.72
2019-03-18T07:55:06.374Z,13.20
2019-03-18T07:57:33.834Z,22.80
2019-03-18T08:00:01.260Z,19.40
2019-03-18T08:02:28.692Z,13.95
2019-03-18T08:04:56.142Z,15.38
2019-03-18T08:07:23.570Z,17.70
2019-03-18T08:09:51.012Z,11.18
2019-03-18T08:12:18.563Z,13.18
2019-03-18T08:14:46.009Z,13.25
2019-03-18T08:17:13.444Z,14.75
2019-03-18T08:19:40.877Z,10.75
2019-03-18T08:22:08.369Z,16.10
2019-03-18T08:24:35.789Z,17.05
2019-03-18T08:27:03.421Z,14.40
2019-03-18T08:29:30.984Z,12.80
2019-03-18T08:31:58.449Z,13.10
2019-03-18T08:34:25.881Z,17.73
2019-03-18T08:36:53.336Z,16.55
2019-03-18T08:39:20.777Z,13.08
2019-03-18T08:41:48.244Z,14.20
2019-03-18T08:44:15.688Z,12.05
2019-03-18T08:46:43.121Z,14.35
2019-03-18T08:49:10.732Z,12.28
2019-03-18T08:51:38.163Z,14.75
2019-03-18T08:54:05.613Z,12.18
2019-03-18T08:56:33.049Z,14.03
2019-03-18T08:59:00.476Z,13.18
2019-03-18T09:01:28.038Z,12.05
2019-03-18T09:03:55.500Z,11.65
2019-03-18T09:06:22.947Z,11.93
2019-03-18T09:08:50.421Z,11.45
2019-03-18T09:11:17.959Z,11.12
2019-03-18T09:13:45.389Z,7.92
2019-03-18T09:16:12.972Z,14.35
2019-03-18T09:18:40.414Z,16.48
2019-03-18T09:21:07.852Z,8.28
2019-03-18T09:23:36.148Z,8.50
2019-03-18T09:26:03.962Z,8.48
2019-03-18T09:28:32.110Z,12.15
2019-03-18T09:30:59.544Z,11.65
2019-03-18T09:33:27.000Z,8.03
2019-03-18T09:35:54.439Z,9.93
2019-03-18T09:38:21.865Z,16.55
2019-03-18T09:40:49.517Z,18.65
2019-03-18T09:43:16.944Z,13.53
2019-03-18T09:45:44.393Z,15.23
2019-03-18T09:48:11.837Z,8.53
2019-03-18T09:50:39.296Z,10.40
2019-03-18T09:53:06.764Z,11.95
2019-03-18T09:55:34.210Z,13.90
2019-03-18T09:58:01.645Z,14.53
2019-03-18T10:00:29.093Z,11.73
2019-03-18T10:02:56.528Z,13.35
2019-03-18T10:05:23.972Z,8.55
2019-03-18T10:07:51.593Z,12.03
2019-03-18T10:10:19.045Z,17.70
2019-03-18T10:12:46.483Z,11.75
2019-03-18T10:15:13.940Z,18.95
2019-03-18T10:17:41.379Z,13.00
2019-03-18T10:20:09.029Z,11.63
2019-03-18T10:22:36.484Z,7.95
2019-03-18T10:25:04.571Z,11.48
2019-03-18T10:27:32.095Z,12.10
2019-03-18T10:29:59.489Z,8.93
2019-03-18T10:32:26.945Z,11.88
2019-03-18T10:34:54.384Z,6.20
2019-03-18T10:37:21.825Z,9.95
2019-03-18T10:39:49.461Z,10.13
2019-03-18T10:42:16.894Z,11.50
2019-03-18T10:44:44.307Z,5.70
2019-03-18T10:47:11.810Z,7.40
2019-03-18T10:49:46.178Z,10.00
2019-03-18T10:52:08.481Z,10.78
2019-03-18T10:54:35.908Z,7.95
2019-03-18T10:57:03.361Z,8.20
2019-03-18T10:59:30.806Z,12.55
2019-03-18T11:01:58.344Z,16.52
2019-03-18T11:04:25.791Z,7.08
2019-03-18T11:06:53.217Z,8.15
2019-03-18T11:09:20.640Z,7.30
2019-03-18T11:11:48.169Z,9.50
2019-03-18T11:14:15.592Z,4.10
2019-03-18T11:16:43.023Z,10.23
2019-03-18T11:19:10.475Z,7.78
2019-03-18T11:21:37.908Z,9.98
2019-03-18T11:24:05.373Z,11.33
2019-03-18T11:26:32.793Z,9.73
2019-03-18T11:29:00.231Z,7.05
2019-03-18T11:31:27.689Z,7.20
2019-03-18T11:33:55.138Z,9.40
2019-03-18T11:36:22.610Z,5.30
2019-03-18T11:38:50.051Z,5.47
2019-03-18T11:41:17.737Z,5.20
2019-03-18T11:43:45.191Z,4.17
2019-03-18T11:46:12.749Z,7.95
2019-03-18T11:48:40.172Z,8.58
2019-03-18T11:51:07.601Z,8.68
2019-03-18T11:53:35.048Z,5.70
2019-03-18T11:56:02.530Z,8.35
2019-03-18T11:58:29.972Z,9.18
2019-03-18T12:00:57.410Z,9.00
2019-03-18T12:03:24.857Z,6.55
2019-03-18T12:05:52.389Z,6.72
2019-03-18T12:08:19.825Z,8.23
2019-03-18T12:10:47.336Z,7.58
2019-03-18T12:13:14.707Z,10.05
2019-03-18T12:15:42.154Z,7.80
2019-03-18T12:18:09.596Z,7.58
2019-03-18T12:20:37.128Z,9.73
2019-03-18T12:23:04.565Z,8.28
2019-03-18T12:25:33.753Z,7.33
2019-03-18T12:28:01.553Z,8.00
2019-03-18T12:30:28.984Z,10.48
2019-03-18T12:32:56.432Z,6.20
2019-03-18T12:35:23.869Z,6.00
2019-03-18T12:37:51.334Z,6.97
2019-03-18T12:40:18.972Z,9.45
2019-03-18T12:42:46.625Z,6.90
2019-03-18T12:45:14.087Z,5.75
2019-03-18T12:47:41.516Z,8.68
2019-03-18T12:50:11.963Z,4.83
2019-03-18T12:52:39.425Z,5.65
2019-03-18T12:55:07.144Z,5.53
2019-03-18T12:57:34.589Z,2.98
2019-03-18T13:00:02.057Z,7.55
2019-03-18T13:02:29.485Z,6.72
2019-03-18T13:04:56.928Z,8.53
2019-03-18T13:07:24.397Z,13.28
2019-03-18T13:09:51.837Z,5.20
2019-03-18T13:12:19.461Z,6.80
2019-03-18T13:14:47.020Z,6.03
2019-03-18T13:17:14.477Z,10.98
2019-03-18T13:19:41.925Z,5.17
2019-03-18T13:22:09.369Z,8.25
2019-03-18T13:24:36.808Z,8.08
2019-03-18T13:27:04.283Z,7.15
2019-03-18T13:29:32.245Z,5.72
2019-03-18T13:31:59.700Z,8.75
2019-03-18T13:34:27.131Z,7.92
2019-03-18T13:36:54.489Z,5.28
2019-03-18T13:39:23.056Z,7.62
2019-03-18T13:41:50.508Z,6.97
2019-03-18T13:44:17.971Z,8.28
2019-03-18T13:46:45.520Z,6.92
2019-03-18T13:49:15.813Z,4.62
2019-03-18T13:51:42.216Z,6.92
2019-03-18T13:54:09.644Z,11.68
2019-03-18T13:56:37.110Z,4.15
2019-03-18T13:59:04.561Z,3.42
2019-03-18T14:01:32.199Z,5.35
2019-03-18T14:03:59.656Z,5.28
2019-03-18T14:06:27.092Z,5.92
2019-03-18T14:08:54.529Z,4.50
2019-03-18T14:11:21.990Z,3.85
2019-03-18T14:13:49.574Z,8.85
2019-03-18T14:16:17.036Z,8.85
2019-03-18T14:18:44.489Z,6.50
2019-03-18T14:21:11.919Z,7.22
2019-03-18T14:23:39.360Z,5.50
2019-03-18T14:26:06.828Z,8.60
2019-03-18T14:28:34.260Z,6.60
2019-03-18T14:31:01.750Z,6.95
2019-03-18T14:33:29.169Z,4.97
2019-03-18T14:35:56.616Z,6.12
2019-03-18T14:38:24.052Z,2.42
2019-03-18T14:40:51.492Z,3.90
2019-03-18T14:43:19.024Z,4.70
2019-03-18T14:45:46.456Z,2.67
2019-03-18T14:48:13.926Z,4.12
2019-03-18T14:50:41.366Z,5.95
2019-03-18T14:53:08.995Z,3.35
2019-03-18T14:55:36.548Z,3.98
2019-03-18T14:58:03.970Z,4.67
2019-03-18T15:00:31.425Z,4.85
2019-03-18T15:02:58.891Z,5.65
2019-03-18T15:05:26.332Z,5.60
2019-03-18T15:07:53.791Z,4.58
2019-03-18T15:10:21.249Z,4.05
2019-03-18T15:12:48.666Z,7.80
2019-03-18T15:15:16.617Z,3.35
2019-03-18T15:17:44.056Z,8.78
2019-03-18T15:20:12.456Z,3.55
2019-03-18T15:22:40.184Z,3.12
2019-03-18T15:25:10.653Z,7.50
2019-03-18T15:27:38.080Z,2.75
2019-03-18T15:30:07.741Z,3.47
2019-03-18T15:32:35.176Z,6.03
2019-03-18T15:35:02.670Z,3.98
2019-03-18T15:37:30.151Z,8.40
2019-03-18T15:39:57.589Z,6.65
2019-03-18T15:42:25.036Z,8.95
2019-03-18T15:44:52.504Z,5.00
2019-03-18T15:47:19.937Z,7.85
2019-03-18T15:49:47.381Z,5.42
2019-03-18T15:52:14.837Z,4.97
2019-03-18T15:54:53.469Z,3.80
2019-03-18T15:57:11.510Z,4.92
2019-03-18T15:59:39.003Z,9.80
2019-03-18T16:02:06.601Z,3.87
2019-03-18T16:04:34.040Z,1.85
2019-03-18T16:07:01.538Z,5.03
2019-03-18T16:09:29.002Z,6.83
2019-03-18T16:11:56.469Z,6.20
2019-03-18T16:14:23.941Z,6.10
2019-03-18T16:17:01.496Z,7.75
2019-03-18T16:19:20.580Z,4.65
2019-03-18T16:21:48.016Z,6.83
2019-03-18T16:24:17.128Z,5.78
2019-03-18T16:26:44.718Z,7.85
2019-03-18T16:29:12.149Z,4.12
2019-03-18T16:31:39.600Z,9.48
2019-03-18T16:34:07.100Z,8.03
2019-03-18T16:36:34.464Z,6.75
2019-03-18T16:39:01.916Z,3.22
2019-03-18T16:41:29.331Z,5.65
2019-03-18T16:43:56.764Z,14.18
2019-03-18T16:46:24.194Z,6.22
2019-03-18T16:48:51.680Z,5.45
2019-03-18T16:51:19.199Z,6.25
2019-03-18T16:53:46.642Z,10.43
2019-03-18T16:56:14.315Z,5.25
2019-03-18T16:58:41.672Z,6.47
2019-03-18T17:01:09.006Z,6.03
2019-03-18T17:03:36.454Z,9.70
2019-03-18T17:06:03.927Z,8.90
2019-03-18T17:08:31.356Z,4.78
2019-03-18T17:10:58.823Z,6.70
2019-03-18T17:13:26.263Z,7.20
2019-03-18T17:15:53.699Z,10.53
2019-03-18T17:18:21.181Z,6.47
2019-03-18T17:20:48.639Z,6.05
2019-03-18T17:23:16.074Z,5.92
2019-03-18T17:25:43.532Z,4.78
2019-03-18T17:28:10.977Z,9.15
2019-03-18T17:30:38.423Z,10.93
2019-03-18T17:33:05.921Z,7.47
2019-03-18T17:35:33.429Z,10.58
2019-03-18T17:38:00.909Z,8.03
2019-03-18T17:40:28.377Z,7.78
2019-03-18T17:42:55.829Z,7.55
2019-03-18T17:45:23.256Z,4.33
2019-03-18T17:47:50.740Z,10.25
2019-03-18T17:50:18.725Z,10.10
2019-03-18T17:52:46.166Z,10.08
2019-03-18T17:55:13.600Z,8.18
2019-03-18T17:57:41.049Z,8.45
2019-03-18T18:00:11.324Z,8.10
2019-03-18T18:02:38.748Z,8.40
2019-03-18T18:05:06.172Z,10.03
2019-03-18T18:07:33.626Z,14.60
2019-03-18T18:10:01.081Z,8.55
2019-03-18T18:12:28.516Z,9.73
2019-03-18T18:14:55.960Z,12.65
2019-03-18T18:17:23.401Z,5.25
2019-03-18T18:19:50.864Z,9.30
2019-03-18T18:22:18.346Z,11.30
2019-03-18T18:24:45.820Z,7.70
2019-03-18T18:27:13.259Z,8.78
2019-03-18T18:29:40.696Z,7.95
2019-03-18T18:32:08.174Z,6.47
2019-03-18T18:34:35.587Z,12.53
2019-03-18T18:37:02.976Z,8.75
2019-03-18T18:39:30.432Z,9.73
2019-03-18T18:41:57.868Z,9.25
2019-03-18T18:44:25.293Z,14.85
2019-03-18T18:46:52.729Z,7.95
2019-03-18T18:49:20.088Z,10.35
2019-03-18T18:51:47.574Z,9.53
2019-03-18T18:54:14.945Z,9.93
2019-03-18T18:56:42.420Z,14.78
2019-03-18T18:59:10.062Z,14.63
2019-03-18T19:01:37.654Z,12.50
2019-03-18T19:04:05.101Z,7.17
2019-03-18T19:06:32.556Z,14.35
2019-03-18T19:09:00.043Z,11.22
2019-03-18T19:11:27.418Z,21.45
2019-03-18T19:13:54.862Z,17.73
2019-03-18T19:16:22.329Z,13.22
2019-03-18T19:18:49.774Z,18.95
2019-03-18T19:21:17.222Z,12.18
2019-03-18T19:23:44.673Z,13.48
2019-03-18T19:26:12.138Z,12.70
2019-03-18T19:28:39.575Z,13.53
2019-03-18T19:31:07.156Z,13.50
2019-03-18T19:33:34.587Z,25.37
2019-03-18T19:36:02.213Z,13.50
2019-03-18T19:38:29.569Z,8.43
2019-03-18T19:40:56.894Z,10.20
2019-03-18T19:43:24.333Z,12.03
2019-03-18T19:45:51.915Z,12.63
2019-03-18T19:48:19.453Z,20.50
2019-03-18T19:50:46.909Z,12.18
2019-03-18T19:53:14.349Z,13.85
2019-03-18T19:55:41.775Z,12.98
2019-03-18T19:58:09.116Z,13.28
2019-03-18T20:00:36.564Z,12.23
2019-03-18T20:03:04.541Z,12.07
2019-03-18T20:05:31.982Z,17.40
2019-03-18T20:07:59.498Z,14.15
2019-03-18T20:10:26.972Z,13.68
2019-03-18T20:12:54.417Z,15.60
2019-03-18T20:15:22.041Z,13.08
2019-03-18T20:17:49.789Z,7.50
2019-03-18T20:20:17.223Z,14.53
2019-03-18T20:22:44.685Z,13.18
2019-03-18T20:25:12.137Z,15.60
2019-03-18T20:27:39.599Z,11.40
2019-03-18T20:30:09.532Z,16.97
2019-03-18T20:32:36.974Z,18.57
2019-03-18T20:35:05.771Z,19.32
2019-03-18T20:37:33.312Z,14.70
2019-03-18T20:40:00.772Z,22.62
2019-03-18T20:42:28.237Z,19.75
2019-03-18T20:44:55.812Z,21.20
2019-03-18T20:47:23.248Z,16.60
2019-03-18T20:49:50.733Z,16.77
2019-03-18T20:52:18.235Z,22.70
2019-03-18T20:54:45.699Z,17.65
2019-03-18T20:57:13.667Z,19.77
2019-03-18T20:59:41.140Z,16.10
2019-03-18T21:02:08.608Z,17.90
2019-03-18T21:04:36.066Z,8.70
2019-03-18T21:07:03.540Z,20.45
2019-03-18T21:09:31.012Z,11.80
2019-03-18T21:14:25.168Z,12.68
2019-03-18T21:16:52.632Z,14.35
2019-03-18T21:19:20.144Z,12.63
2019-03-18T21:21:47.620Z,17.60
2019-03-18T21:24:22.970Z,19.65
2019-03-18T21:26:45.526Z,10.25
2019-03-18T21:29:13.693Z,9.18
2019-03-18T21:31:41.135Z,11.68
2019-03-18T21:34:08.709Z,15.20
2019-03-18T21:36:38.071Z,17.30
2019-03-18T21:39:08.148Z,13.10
2019-03-18T21:41:35.648Z,15.08
2019-03-18T21:44:03.165Z,12.28
2019-03-18T21:46:30.477Z,9.18
2019-03-18T21:48:57.910Z,15.60
2019-03-18T21:51:25.316Z,11.18
2019-03-18T21:53:52.622Z,17.12
2019-03-18T21:56:19.938Z,19.57
2019-03-18T21:58:47.213Z,20.70
2019-03-18T22:01:14.658Z,19.50
2019-03-18T22:03:42.193Z,16.20
2019-03-18T22:06:09.445Z,16.75
2019-03-18T22:08:36.931Z,18.12
2019-03-18T22:11:04.448Z,16.75
2019-03-18T22:13:31.897Z,14.47
2019-03-18T22:15:59.332Z,11.38
2019-03-18T22:18:26.802Z,15.48
2019-03-18T22:20:54.232Z,14.07
2019-03-18T22:23:21.692Z,15.08
2019-03-18T22:25:49.208Z,14.33
2019-03-18T22:28:16.637Z,14.33
2019-03-18T22:30:44.061Z,14.58
2019-03-18T22:33:11.652Z,12.45
2019-03-18T22:35:39.094Z,14.18
2019-03-18T22:38:06.534Z,11.25
2019-03-18T22:40:33.997Z,10.68
2019-03-18T22:43:01.456Z,13.50
2019-03-18T22:45:28.913Z,12.47
2019-03-18T22:47:56.493Z,15.48
2019-03-18T22:50:23.860Z,12.70
2019-03-18T22:52:51.310Z,11.08
2019-03-18T22:55:18.850Z,11.43
2019-03-18T22:57:46.285Z,11.90
2019-03-18T23:00:28.965Z,12.18
2019-03-18T23:02:56.405Z,12.85
2019-03-18T23:05:23.852Z,17.23
2019-03-18T23:07:51.291Z,16.42
2019-03-18T23:10:18.740Z,15.23
2019-03-18T23:12:46.205Z,9.05
2019-03-18T23:15:13.879Z,15.88
2019-03-18T23:17:41.600Z,12.00
2019-03-18T23:20:09.073Z,15.18
2019-03-18T23:22:36.501Z,15.50
2019-03-18T23:25:07.778Z,11.65
2019-03-18T23:27:34.022Z,13.53
2019-03-18T23:30:01.615Z,14.75
2019-03-18T23:32:29.060Z,15.23
2019-03-18T23:34:56.604Z,13.62
2019-03-18T23:37:24.049Z,16.48
2019-03-18T23:39:52.036Z,17.17
2019-03-18T23:42:19.772Z,8.33
2019-03-18T23:44:47.224Z,20.70
2019-03-18T23:47:14.676Z,17.82
2019-03-18T23:49:42.136Z,23.05
2019-03-18T23:52:09.625Z,24.52
2019-03-18T23:54:37.189Z,22.32
2019-03-18T23:57:04.639Z,18.25
2019-03-18T23:59:32.092Z,22.75
